sensor_id;sensor_type;location;lat;lon;timestamp;P1;durP1;ratioP1;P2;durP2;ratioP2
74904;SDS011;63465;50.862;6.220;2023-03-01T00:00:52;12.37;;;8.40;;
74904;SDS011;63465;50.862;6.220;2023-03-01T00:03:19;13.83;;;8.13;;
74904;SDS011;63465;50.862;6.220;2023-03-01T00:05:46;10.73;;;7.23;;
74904;SDS011;63465;50.862;6.220;2023-03-01T00:08:14;12.97;;;8.43;;
74904;SDS011;63465;50.862;6.220;2023-03-01T00:10:41;12.47;;;7.70;;
74904;SDS011;63465;50.862;6.220;2023-03-01T00:13:08;16.93;;;8.10;;
74904;SDS011;63465;50.862;6.220;2023-03-01T00:15:37;14.13;;;8.60;;
74904;SDS011;63465;50.862;6.220;2023-03-01T00:18:04;13.30;;;8.00;;
74904;SDS011;63465;50.862;6.220;2023-03-01T00:20:31;11.80;;;8.00;;
74904;SDS011;63465;50.862;6.220;2023-03-01T00:22:58;11.67;;;7.23;;
74904;SDS011;63465;50.862;6.220;2023-03-01T00:25:26;19.83;;;7.43;;
74904;SDS011;63465;50.862;6.220;2023-03-01T00:27:53;12.60;;;7.90;;
74904;SDS011;63465;50.862;6.220;2023-03-01T00:30:19;11.23;;;7.53;;
74904;SDS011;63465;50.862;6.220;2023-03-01T00:32:46;10.30;;;7.10;;
74904;SDS011;63465;50.862;6.220;2023-03-01T00:35:13;11.87;;;8.00;;
74904;SDS011;63465;50.862;6.220;2023-03-01T00:37:40;14.07;;;7.67;;
74904;SDS011;63465;50.862;6.220;2023-03-01T00:40:07;12.70;;;7.70;;
74904;SDS011;63465;50.862;6.220;2023-03-01T00:42:36;14.03;;;6.90;;
74904;SDS011;63465;50.862;6.220;2023-03-01T00:45:04;14.77;;;7.60;;
74904;SDS011;63465;50.862;6.220;2023-03-01T00:47:31;14.27;;;7.30;;
74904;SDS011;63465;50.862;6.220;2023-03-01T00:49:58;11.80;;;7.20;;
74904;SDS011;63465;50.862;6.220;2023-03-01T00:52:25;13.77;;;7.17;;
74904;SDS011;63465;50.862;6.220;2023-03-01T00:54:52;13.47;;;7.13;;
74904;SDS011;63465;50.862;6.220;2023-03-01T00:57:19;13.37;;;7.63;;
74904;SDS011;63465;50.862;6.220;2023-03-01T00:59:47;13.10;;;6.43;;
74904;SDS011;63465;50.862;6.220;2023-03-01T01:02:13;8.67;;;5.87;;
74904;SDS011;63465;50.862;6.220;2023-03-01T01:04:40;14.33;;;6.40;;
74904;SDS011;63465;50.862;6.220;2023-03-01T01:07:07;7.60;;;5.80;;
74904;SDS011;63465;50.862;6.220;2023-03-01T01:09:34;12.43;;;6.33;;
74904;SDS011;63465;50.862;6.220;2023-03-01T01:12:01;8.47;;;5.97;;
74904;SDS011;63465;50.862;6.220;2023-03-01T01:14:27;9.17;;;6.47;;
74904;SDS011;63465;50.862;6.220;2023-03-01T01:16:56;9.87;;;6.00;;
74904;SDS011;63465;50.862;6.220;2023-03-01T01:19:23;11.70;;;6.00;;
74904;SDS011;63465;50.862;6.220;2023-03-01T01:21:50;11.60;;;6.10;;
74904;SDS011;63465;50.862;6.220;2023-03-01T01:24:17;11.93;;;6.13;;
74904;SDS011;63465;50.862;6.220;2023-03-01T01:26:44;11.13;;;6.67;;
74904;SDS011;63465;50.862;6.220;2023-03-01T01:29:12;9.50;;;6.10;;
74904;SDS011;63465;50.862;6.220;2023-03-01T01:31:40;11.77;;;6.30;;
74904;SDS011;63465;50.862;6.220;2023-03-01T01:34:16;10.07;;;6.00;;
74904;SDS011;63465;50.862;6.220;2023-03-01T01:36:43;10.00;;;6.20;;
74904;SDS011;63465;50.862;6.220;2023-03-01T01:39:14;9.70;;;6.60;;
74904;SDS011;63465;50.862;6.220;2023-03-01T01:41:41;8.90;;;6.10;;
74904;SDS011;63465;50.862;6.220;2023-03-01T01:44:13;14.80;;;7.00;;
74904;SDS011;63465;50.862;6.220;2023-03-01T01:46:43;7.63;;;5.97;;
74904;SDS011;63465;50.862;6.220;2023-03-01T01:49:17;9.30;;;6.60;;
74904;SDS011;63465;50.862;6.220;2023-03-01T01:51:49;8.60;;;5.53;;
74904;SDS011;63465;50.862;6.220;2023-03-01T01:54:25;9.37;;;5.87;;
74904;SDS011;63465;50.862;6.220;2023-03-01T01:56:56;12.47;;;6.47;;
74904;SDS011;63465;50.862;6.220;2023-03-01T01:59:26;8.50;;;5.87;;
74904;SDS011;63465;50.862;6.220;2023-03-01T02:01:57;10.63;;;6.43;;
74904;SDS011;63465;50.862;6.220;2023-03-01T02:04:29;9.40;;;6.23;;
74904;SDS011;63465;50.862;6.220;2023-03-01T02:06:58;9.63;;;6.40;;
74904;SDS011;63465;50.862;6.220;2023-03-01T02:09:29;9.93;;;6.50;;
74904;SDS011;63465;50.862;6.220;2023-03-01T02:11:57;10.60;;;6.70;;
74904;SDS011;63465;50.862;6.220;2023-03-01T02:14:25;13.20;;;6.60;;
74904;SDS011;63465;50.862;6.220;2023-03-01T02:16:52;10.67;;;6.50;;
74904;SDS011;63465;50.862;6.220;2023-03-01T02:19:21;11.07;;;7.10;;
74904;SDS011;63465;50.862;6.220;2023-03-01T02:22:00;10.87;;;7.03;;
74904;SDS011;63465;50.862;6.220;2023-03-01T02:24:35;9.73;;;6.77;;
74904;SDS011;63465;50.862;6.220;2023-03-01T02:27:07;9.53;;;5.90;;
74904;SDS011;63465;50.862;6.220;2023-03-01T02:29:37;13.50;;;7.17;;
74904;SDS011;63465;50.862;6.220;2023-03-01T02:32:04;10.47;;;6.70;;
74904;SDS011;63465;50.862;6.220;2023-03-01T02:34:31;10.77;;;6.73;;
74904;SDS011;63465;50.862;6.220;2023-03-01T02:37:00;12.73;;;6.80;;
74904;SDS011;63465;50.862;6.220;2023-03-01T02:39:30;15.13;;;7.10;;
74904;SDS011;63465;50.862;6.220;2023-03-01T02:42:00;11.27;;;6.77;;
74904;SDS011;63465;50.862;6.220;2023-03-01T02:44:29;17.53;;;7.20;;
74904;SDS011;63465;50.862;6.220;2023-03-01T02:46:57;10.40;;;6.67;;
74904;SDS011;63465;50.862;6.220;2023-03-01T02:49:29;11.70;;;6.90;;
74904;SDS011;63465;50.862;6.220;2023-03-01T02:52:17;9.57;;;6.70;;
74904;SDS011;63465;50.862;6.220;2023-03-01T02:54:55;11.97;;;6.70;;
74904;SDS011;63465;50.862;6.220;2023-03-01T02:57:27;10.73;;;6.83;;
74904;SDS011;63465;50.862;6.220;2023-03-01T02:59:56;10.43;;;6.70;;
74904;SDS011;63465;50.862;6.220;2023-03-01T03:02:28;13.73;;;7.03;;
74904;SDS011;63465;50.862;6.220;2023-03-01T03:05:06;13.20;;;6.90;;
74904;SDS011;63465;50.862;6.220;2023-03-01T03:07:36;13.83;;;6.60;;
74904;SDS011;63465;50.862;6.220;2023-03-01T03:10:04;15.13;;;7.17;;
74904;SDS011;63465;50.862;6.220;2023-03-01T03:12:33;18.53;;;8.30;;
74904;SDS011;63465;50.862;6.220;2023-03-01T03:14:59;13.27;;;7.80;;
74904;SDS011;63465;50.862;6.220;2023-03-01T03:17:27;11.40;;;8.07;;
74904;SDS011;63465;50.862;6.220;2023-03-01T03:19:54;13.40;;;7.90;;
74904;SDS011;63465;50.862;6.220;2023-03-01T03:22:21;11.13;;;6.83;;
74904;SDS011;63465;50.862;6.220;2023-03-01T03:24:47;10.40;;;7.23;;
74904;SDS011;63465;50.862;6.220;2023-03-01T03:27:14;14.97;;;7.30;;
74904;SDS011;63465;50.862;6.220;2023-03-01T03:29:41;14.73;;;6.63;;
74904;SDS011;63465;50.862;6.220;2023-03-01T03:32:07;12.97;;;7.80;;
74904;SDS011;63465;50.862;6.220;2023-03-01T03:34:36;11.83;;;6.87;;
74904;SDS011;63465;50.862;6.220;2023-03-01T03:37:02;16.83;;;7.77;;
74904;SDS011;63465;50.862;6.220;2023-03-01T03:39:49;11.03;;;6.60;;
74904;SDS011;63465;50.862;6.220;2023-03-01T03:42:20;12.67;;;6.80;;
74904;SDS011;63465;50.862;6.220;2023-03-01T03:44:47;15.00;;;7.20;;
74904;SDS011;63465;50.862;6.220;2023-03-01T03:47:13;19.23;;;6.80;;
74904;SDS011;63465;50.862;6.220;2023-03-01T03:49:41;11.87;;;6.87;;
74904;SDS011;63465;50.862;6.220;2023-03-01T03:52:08;10.23;;;6.80;;
74904;SDS011;63465;50.862;6.220;2023-03-01T03:54:38;11.67;;;6.57;;
74904;SDS011;63465;50.862;6.220;2023-03-01T03:57:05;9.50;;;6.63;;
74904;SDS011;63465;50.862;6.220;2023-03-01T03:59:32;14.10;;;7.07;;
74904;SDS011;63465;50.862;6.220;2023-03-01T04:01:59;12.37;;;7.60;;
74904;SDS011;63465;50.862;6.220;2023-03-01T04:04:25;12.43;;;7.40;;
74904;SDS011;63465;50.862;6.220;2023-03-01T04:06:53;13.57;;;6.33;;
74904;SDS011;63465;50.862;6.220;2023-03-01T04:09:20;13.80;;;7.13;;
74904;SDS011;63465;50.862;6.220;2023-03-01T04:11:47;11.30;;;7.17;;
74904;SDS011;63465;50.862;6.220;2023-03-01T04:14:14;9.60;;;6.97;;
74904;SDS011;63465;50.862;6.220;2023-03-01T04:16:40;9.90;;;6.20;;
74904;SDS011;63465;50.862;6.220;2023-03-01T04:19:07;10.60;;;6.50;;
74904;SDS011;63465;50.862;6.220;2023-03-01T04:21:34;11.63;;;6.70;;
74904;SDS011;63465;50.862;6.220;2023-03-01T04:24:03;11.90;;;6.90;;
74904;SDS011;63465;50.862;6.220;2023-03-01T04:26:31;10.97;;;6.97;;
74904;SDS011;63465;50.862;6.220;2023-03-01T04:28:58;11.03;;;6.70;;
74904;SDS011;63465;50.862;6.220;2023-03-01T04:31:25;16.17;;;7.93;;
74904;SDS011;63465;50.862;6.220;2023-03-01T04:33:52;11.77;;;7.20;;
74904;SDS011;63465;50.862;6.220;2023-03-01T04:36:21;15.17;;;7.50;;
74904;SDS011;63465;50.862;6.220;2023-03-01T04:38:49;12.13;;;7.57;;
74904;SDS011;63465;50.862;6.220;2023-03-01T04:41:19;11.87;;;7.17;;
74904;SDS011;63465;50.862;6.220;2023-03-01T04:43:47;12.37;;;7.70;;
74904;SDS011;63465;50.862;6.220;2023-03-01T04:46:15;12.70;;;6.80;;
74904;SDS011;63465;50.862;6.220;2023-03-01T04:48:43;16.33;;;7.73;;
74904;SDS011;63465;50.862;6.220;2023-03-01T04:51:11;13.10;;;7.60;;
74904;SDS011;63465;50.862;6.220;2023-03-01T04:53:39;29.50;;;9.20;;
74904;SDS011;63465;50.862;6.220;2023-03-01T04:56:06;25.03;;;7.50;;
74904;SDS011;63465;50.862;6.220;2023-03-01T04:58:35;17.20;;;7.70;;
74904;SDS011;63465;50.862;6.220;2023-03-01T05:01:01;11.13;;;7.80;;
74904;SDS011;63465;50.862;6.220;2023-03-01T05:03:40;11.37;;;7.50;;
74904;SDS011;63465;50.862;6.220;2023-03-01T05:06:07;14.57;;;7.43;;
74904;SDS011;63465;50.862;6.220;2023-03-01T05:08:34;24.27;;;8.23;;
74904;SDS011;63465;50.862;6.220;2023-03-01T05:11:03;13.67;;;8.33;;
74904;SDS011;63465;50.862;6.220;2023-03-01T05:13:30;16.53;;;8.97;;
74904;SDS011;63465;50.862;6.220;2023-03-01T05:15:59;14.70;;;8.50;;
74904;SDS011;63465;50.862;6.220;2023-03-01T05:18:27;12.60;;;8.47;;
74904;SDS011;63465;50.862;6.220;2023-03-01T05:20:56;16.13;;;8.23;;
74904;SDS011;63465;50.862;6.220;2023-03-01T05:23:29;15.00;;;8.10;;
74904;SDS011;63465;50.862;6.220;2023-03-01T05:25:57;13.50;;;8.43;;
74904;SDS011;63465;50.862;6.220;2023-03-01T05:28:24;16.00;;;7.80;;
74904;SDS011;63465;50.862;6.220;2023-03-01T05:30:53;14.33;;;8.90;;
74904;SDS011;63465;50.862;6.220;2023-03-01T05:33:21;17.27;;;8.47;;
74904;SDS011;63465;50.862;6.220;2023-03-01T05:35:48;15.17;;;9.10;;
74904;SDS011;63465;50.862;6.220;2023-03-01T05:38:17;17.23;;;8.77;;
74904;SDS011;63465;50.862;6.220;2023-03-01T05:40:44;13.43;;;8.57;;
74904;SDS011;63465;50.862;6.220;2023-03-01T05:43:13;18.23;;;8.90;;
74904;SDS011;63465;50.862;6.220;2023-03-01T05:45:41;16.33;;;8.80;;
74904;SDS011;63465;50.862;6.220;2023-03-01T05:48:09;17.53;;;9.63;;
74904;SDS011;63465;50.862;6.220;2023-03-01T05:50:38;14.43;;;8.43;;
74904;SDS011;63465;50.862;6.220;2023-03-01T05:53:07;17.97;;;9.33;;
74904;SDS011;63465;50.862;6.220;2023-03-01T05:55:37;18.60;;;8.17;;
74904;SDS011;63465;50.862;6.220;2023-03-01T05:58:05;12.37;;;7.47;;
74904;SDS011;63465;50.862;6.220;2023-03-01T06:00:33;15.37;;;9.00;;
74904;SDS011;63465;50.862;6.220;2023-03-01T06:03:01;14.53;;;8.00;;
74904;SDS011;63465;50.862;6.220;2023-03-01T06:05:28;21.60;;;8.60;;
74904;SDS011;63465;50.862;6.220;2023-03-01T06:07:56;14.73;;;8.87;;
74904;SDS011;63465;50.862;6.220;2023-03-01T06:10:25;11.80;;;8.80;;
74904;SDS011;63465;50.862;6.220;2023-03-01T06:12:52;17.07;;;8.40;;
74904;SDS011;63465;50.862;6.220;2023-03-01T06:15:20;12.13;;;7.93;;
74904;SDS011;63465;50.862;6.220;2023-03-01T06:17:47;16.93;;;8.27;;
74904;SDS011;63465;50.862;6.220;2023-03-01T06:20:15;11.77;;;8.20;;
74904;SDS011;63465;50.862;6.220;2023-03-01T06:22:43;14.93;;;8.50;;
74904;SDS011;63465;50.862;6.220;2023-03-01T06:25:13;17.00;;;8.43;;
74904;SDS011;63465;50.862;6.220;2023-03-01T06:27:41;14.40;;;9.20;;
74904;SDS011;63465;50.862;6.220;2023-03-01T06:30:08;32.53;;;9.70;;
74904;SDS011;63465;50.862;6.220;2023-03-01T06:32:37;15.27;;;8.50;;
74904;SDS011;63465;50.862;6.220;2023-03-01T06:35:07;15.90;;;9.30;;
74904;SDS011;63465;50.862;6.220;2023-03-01T06:37:35;12.47;;;8.57;;
74904;SDS011;63465;50.862;6.220;2023-03-01T06:40:02;11.30;;;7.93;;
74904;SDS011;63465;50.862;6.220;2023-03-01T06:42:34;14.13;;;8.50;;
74904;SDS011;63465;50.862;6.220;2023-03-01T06:45:02;16.43;;;9.40;;
74904;SDS011;63465;50.862;6.220;2023-03-01T06:47:29;13.20;;;8.30;;
74904;SDS011;63465;50.862;6.220;2023-03-01T06:49:56;14.70;;;8.77;;
74904;SDS011;63465;50.862;6.220;2023-03-01T06:52:23;23.30;;;8.70;;
74904;SDS011;63465;50.862;6.220;2023-03-01T06:54:49;14.10;;;8.03;;
74904;SDS011;63465;50.862;6.220;2023-03-01T06:57:16;22.00;;;9.37;;
74904;SDS011;63465;50.862;6.220;2023-03-01T06:59:44;21.03;;;9.33;;
74904;SDS011;63465;50.862;6.220;2023-03-01T07:02:13;16.53;;;9.53;;
74904;SDS011;63465;50.862;6.220;2023-03-01T07:04:40;16.97;;;9.50;;
74904;SDS011;63465;50.862;6.220;2023-03-01T07:07:07;14.37;;;7.87;;
74904;SDS011;63465;50.862;6.220;2023-03-01T07:09:34;14.97;;;8.80;;
74904;SDS011;63465;50.862;6.220;2023-03-01T07:12:01;16.30;;;9.83;;
74904;SDS011;63465;50.862;6.220;2023-03-01T07:14:28;23.70;;;10.70;;
74904;SDS011;63465;50.862;6.220;2023-03-01T07:16:56;22.80;;;11.27;;
74904;SDS011;63465;50.862;6.220;2023-03-01T07:19:23;15.10;;;9.10;;
74904;SDS011;63465;50.862;6.220;2023-03-01T07:21:50;23.50;;;9.97;;
74904;SDS011;63465;50.862;6.220;2023-03-01T07:24:17;18.47;;;9.67;;
74904;SDS011;63465;50.862;6.220;2023-03-01T07:26:43;21.60;;;9.90;;
74904;SDS011;63465;50.862;6.220;2023-03-01T07:29:10;18.53;;;11.07;;
74904;SDS011;63465;50.862;6.220;2023-03-01T07:31:37;26.70;;;14.10;;
74904;SDS011;63465;50.862;6.220;2023-03-01T07:34:05;31.87;;;13.80;;
74904;SDS011;63465;50.862;6.220;2023-03-01T07:36:31;21.07;;;10.77;;
74904;SDS011;63465;50.862;6.220;2023-03-01T07:38:58;20.27;;;10.63;;
74904;SDS011;63465;50.862;6.220;2023-03-01T07:41:27;22.73;;;9.97;;
74904;SDS011;63465;50.862;6.220;2023-03-01T07:43:54;17.80;;;9.10;;
74904;SDS011;63465;50.862;6.220;2023-03-01T07:46:21;16.73;;;9.20;;
74904;SDS011;63465;50.862;6.220;2023-03-01T07:48:48;16.70;;;9.63;;
74904;SDS011;63465;50.862;6.220;2023-03-01T07:51:16;15.47;;;8.93;;
74904;SDS011;63465;50.862;6.220;2023-03-01T07:53:44;23.10;;;10.23;;
74904;SDS011;63465;50.862;6.220;2023-03-01T07:56:12;18.73;;;9.27;;
74904;SDS011;63465;50.862;6.220;2023-03-01T07:58:43;18.37;;;10.40;;
74904;SDS011;63465;50.862;6.220;2023-03-01T08:01:11;19.87;;;8.90;;
74904;SDS011;63465;50.862;6.220;2023-03-01T08:03:39;16.10;;;10.20;;
74904;SDS011;63465;50.862;6.220;2023-03-01T08:06:07;18.23;;;10.70;;
74904;SDS011;63465;50.862;6.220;2023-03-01T08:08:37;21.37;;;10.83;;
74904;SDS011;63465;50.862;6.220;2023-03-01T08:11:05;19.77;;;10.37;;
74904;SDS011;63465;50.862;6.220;2023-03-01T08:13:32;22.43;;;13.27;;
74904;SDS011;63465;50.862;6.220;2023-03-01T08:16:00;20.47;;;10.60;;
74904;SDS011;63465;50.862;6.220;2023-03-01T08:18:28;48.33;;;23.10;;
74904;SDS011;63465;50.862;6.220;2023-03-01T08:20:55;24.33;;;14.60;;
74904;SDS011;63465;50.862;6.220;2023-03-01T08:23:21;20.77;;;10.80;;
74904;SDS011;63465;50.862;6.220;2023-03-01T08:25:49;18.53;;;9.80;;
74904;SDS011;63465;50.862;6.220;2023-03-01T08:28:16;24.93;;;11.43;;
74904;SDS011;63465;50.862;6.220;2023-03-01T08:30:42;25.00;;;12.63;;
74904;SDS011;63465;50.862;6.220;2023-03-01T08:33:09;20.63;;;11.47;;
74904;SDS011;63465;50.862;6.220;2023-03-01T08:35:36;16.43;;;9.47;;
74904;SDS011;63465;50.862;6.220;2023-03-01T08:38:02;18.97;;;11.00;;
74904;SDS011;63465;50.862;6.220;2023-03-01T08:40:29;23.97;;;10.80;;
74904;SDS011;63465;50.862;6.220;2023-03-01T08:42:58;20.90;;;11.03;;
74904;SDS011;63465;50.862;6.220;2023-03-01T08:45:25;25.27;;;11.00;;
74904;SDS011;63465;50.862;6.220;2023-03-01T08:47:52;19.30;;;9.13;;
74904;SDS011;63465;50.862;6.220;2023-03-01T08:50:19;18.07;;;9.30;;
74904;SDS011;63465;50.862;6.220;2023-03-01T08:52:46;20.90;;;9.53;;
74904;SDS011;63465;50.862;6.220;2023-03-01T08:55:12;22.80;;;10.77;;
74904;SDS011;63465;50.862;6.220;2023-03-01T08:57:41;42.80;;;18.83;;
74904;SDS011;63465;50.862;6.220;2023-03-01T09:00:10;28.20;;;11.23;;
74904;SDS011;63465;50.862;6.220;2023-03-01T09:02:40;21.53;;;9.90;;
74904;SDS011;63465;50.862;6.220;2023-03-01T09:05:07;17.60;;;9.50;;
74904;SDS011;63465;50.862;6.220;2023-03-01T09:07:34;17.83;;;10.33;;
74904;SDS011;63465;50.862;6.220;2023-03-01T09:10:01;17.70;;;9.77;;
74904;SDS011;63465;50.862;6.220;2023-03-01T09:12:28;17.30;;;9.40;;
74904;SDS011;63465;50.862;6.220;2023-03-01T09:14:54;18.90;;;9.03;;
74904;SDS011;63465;50.862;6.220;2023-03-01T09:17:22;18.40;;;10.20;;
74904;SDS011;63465;50.862;6.220;2023-03-01T09:19:49;15.97;;;8.93;;
74904;SDS011;63465;50.862;6.220;2023-03-01T09:22:16;19.83;;;9.73;;
74904;SDS011;63465;50.862;6.220;2023-03-01T09:24:43;15.83;;;9.33;;
74904;SDS011;63465;50.862;6.220;2023-03-01T09:27:10;18.20;;;10.00;;
74904;SDS011;63465;50.862;6.220;2023-03-01T09:29:38;22.17;;;9.10;;
74904;SDS011;63465;50.862;6.220;2023-03-01T09:32:05;17.37;;;9.20;;
74904;SDS011;63465;50.862;6.220;2023-03-01T09:34:34;23.97;;;10.33;;
74904;SDS011;63465;50.862;6.220;2023-03-01T09:37:22;16.60;;;9.20;;
74904;SDS011;63465;50.862;6.220;2023-03-01T09:39:48;15.93;;;9.30;;
74904;SDS011;63465;50.862;6.220;2023-03-01T09:42:15;25.07;;;13.37;;
74904;SDS011;63465;50.862;6.220;2023-03-01T09:44:43;53.63;;;30.93;;
74904;SDS011;63465;50.862;6.220;2023-03-01T09:47:16;31.83;;;11.53;;
74904;SDS011;63465;50.862;6.220;2023-03-01T09:49:47;18.53;;;10.20;;
74904;SDS011;63465;50.862;6.220;2023-03-01T09:52:26;23.70;;;12.63;;
74904;SDS011;63465;50.862;6.220;2023-03-01T09:54:59;20.80;;;9.73;;
74904;SDS011;63465;50.862;6.220;2023-03-01T09:57:28;23.07;;;11.63;;
74904;SDS011;63465;50.862;6.220;2023-03-01T10:00:07;23.50;;;9.97;;
74904;SDS011;63465;50.862;6.220;2023-03-01T10:02:43;17.57;;;9.70;;
74904;SDS011;63465;50.862;6.220;2023-03-01T10:05:19;20.40;;;12.17;;
74904;SDS011;63465;50.862;6.220;2023-03-01T10:08:00;22.57;;;12.10;;
74904;SDS011;63465;50.862;6.220;2023-03-01T10:10:43;22.50;;;12.07;;
74904;SDS011;63465;50.862;6.220;2023-03-01T10:13:14;20.80;;;11.90;;
74904;SDS011;63465;50.862;6.220;2023-03-01T10:15:47;20.10;;;10.40;;
74904;SDS011;63465;50.862;6.220;2023-03-01T10:18:21;19.77;;;11.57;;
74904;SDS011;63465;50.862;6.220;2023-03-01T10:20:53;36.23;;;23.20;;
74904;SDS011;63465;50.862;6.220;2023-03-01T10:23:22;22.30;;;12.30;;
74904;SDS011;63465;50.862;6.220;2023-03-01T10:29:05;18.80;;;10.27;;
74904;SDS011;63465;50.862;6.220;2023-03-01T10:31:37;16.07;;;10.53;;
74904;SDS011;63465;50.862;6.220;2023-03-01T10:34:09;25.83;;;13.53;;
74904;SDS011;63465;50.862;6.220;2023-03-01T10:36:40;32.23;;;21.07;;
74904;SDS011;63465;50.862;6.220;2023-03-01T10:39:12;16.50;;;10.20;;
74904;SDS011;63465;50.862;6.220;2023-03-01T10:41:54;21.10;;;13.30;;
74904;SDS011;63465;50.862;6.220;2023-03-01T10:44:37;16.60;;;9.87;;
74904;SDS011;63465;50.862;6.220;2023-03-01T10:47:12;23.03;;;12.20;;
74904;SDS011;63465;50.862;6.220;2023-03-01T10:49:45;17.07;;;10.03;;
74904;SDS011;63465;50.862;6.220;2023-03-01T10:52:20;18.43;;;12.80;;
74904;SDS011;63465;50.862;6.220;2023-03-01T10:54:53;18.30;;;13.80;;
74904;SDS011;63465;50.862;6.220;2023-03-01T10:57:32;19.63;;;11.50;;
74904;SDS011;63465;50.862;6.220;2023-03-01T11:00:22;23.03;;;14.23;;
74904;SDS011;63465;50.862;6.220;2023-03-01T11:03:00;25.23;;;15.87;;
74904;SDS011;63465;50.862;6.220;2023-03-01T11:05:29;23.23;;;17.83;;
74904;SDS011;63465;50.862;6.220;2023-03-01T11:08:00;23.07;;;13.17;;
74904;SDS011;63465;50.862;6.220;2023-03-01T11:10:29;16.40;;;10.40;;
74904;SDS011;63465;50.862;6.220;2023-03-01T11:13:05;21.40;;;10.60;;
74904;SDS011;63465;50.862;6.220;2023-03-01T11:15:34;27.23;;;13.00;;
74904;SDS011;63465;50.862;6.220;2023-03-01T11:18:01;22.67;;;11.97;;
74904;SDS011;63465;50.862;6.220;2023-03-01T11:20:29;18.80;;;10.90;;
74904;SDS011;63465;50.862;6.220;2023-03-01T11:23:00;20.43;;;10.63;;
74904;SDS011;63465;50.862;6.220;2023-03-01T11:25:31;19.97;;;11.57;;
74904;SDS011;63465;50.862;6.220;2023-03-01T11:28:01;19.53;;;14.10;;
74904;SDS011;63465;50.862;6.220;2023-03-01T11:30:32;20.30;;;11.87;;
74904;SDS011;63465;50.862;6.220;2023-03-01T11:33:08;30.47;;;12.80;;
74904;SDS011;63465;50.862;6.220;2023-03-01T11:35:44;17.83;;;10.90;;
74904;SDS011;63465;50.862;6.220;2023-03-01T11:38:18;21.33;;;12.07;;
74904;SDS011;63465;50.862;6.220;2023-03-01T11:40:49;21.43;;;12.30;;
74904;SDS011;63465;50.862;6.220;2023-03-01T11:43:26;19.50;;;11.43;;
74904;SDS011;63465;50.862;6.220;2023-03-01T11:46:11;29.43;;;16.70;;
74904;SDS011;63465;50.862;6.220;2023-03-01T11:48:57;21.17;;;13.30;;
74904;SDS011;63465;50.862;6.220;2023-03-01T11:51:40;48.27;;;34.33;;
74904;SDS011;63465;50.862;6.220;2023-03-01T11:54:20;29.70;;;17.77;;
74904;SDS011;63465;50.862;6.220;2023-03-01T11:56:57;126.07;;;74.97;;
74904;SDS011;63465;50.862;6.220;2023-03-01T11:59:37;22.80;;;13.03;;
74904;SDS011;63465;50.862;6.220;2023-03-01T12:05:21;26.50;;;13.80;;
74904;SDS011;63465;50.862;6.220;2023-03-01T12:08:04;26.07;;;14.90;;
74904;SDS011;63465;50.862;6.220;2023-03-01T12:10:41;38.60;;;25.97;;
74904;SDS011;63465;50.862;6.220;2023-03-01T12:13:27;21.50;;;12.20;;
74904;SDS011;63465;50.862;6.220;2023-03-01T12:16:15;20.87;;;12.90;;
74904;SDS011;63465;50.862;6.220;2023-03-01T12:18:58;18.00;;;13.37;;
74904;SDS011;63465;50.862;6.220;2023-03-01T12:21:38;18.63;;;11.53;;
74904;SDS011;63465;50.862;6.220;2023-03-01T12:27:25;22.53;;;13.10;;
74904;SDS011;63465;50.862;6.220;2023-03-01T12:30:17;21.83;;;13.33;;
74904;SDS011;63465;50.862;6.220;2023-03-01T12:32:54;21.40;;;12.33;;
74904;SDS011;63465;50.862;6.220;2023-03-01T12:35:36;20.00;;;12.67;;
74904;SDS011;63465;50.862;6.220;2023-03-01T12:38:18;25.33;;;16.97;;
74904;SDS011;63465;50.862;6.220;2023-03-01T12:41:03;20.50;;;12.83;;
74904;SDS011;63465;50.862;6.220;2023-03-01T12:43:44;24.13;;;15.23;;
74904;SDS011;63465;50.862;6.220;2023-03-01T12:46:21;23.47;;;12.13;;
74904;SDS011;63465;50.862;6.220;2023-03-01T12:48:59;62.77;;;28.10;;
74904;SDS011;63465;50.862;6.220;2023-03-01T12:51:32;17.67;;;11.00;;
74904;SDS011;63465;50.862;6.220;2023-03-01T12:54:04;20.33;;;13.13;;
74904;SDS011;63465;50.862;6.220;2023-03-01T12:56:38;17.60;;;10.60;;
74904;SDS011;63465;50.862;6.220;2023-03-01T12:59:09;21.03;;;12.30;;
74904;SDS011;63465;50.862;6.220;2023-03-01T13:01:42;22.67;;;12.50;;
74904;SDS011;63465;50.862;6.220;2023-03-01T13:04:21;21.53;;;10.73;;
74904;SDS011;63465;50.862;6.220;2023-03-01T13:07:04;20.90;;;11.00;;
74904;SDS011;63465;50.862;6.220;2023-03-01T13:09:43;19.27;;;10.83;;
74904;SDS011;63465;50.862;6.220;2023-03-01T13:15:25;20.10;;;9.27;;
74904;SDS011;63465;50.862;6.220;2023-03-01T13:17:54;14.53;;;8.80;;
74904;SDS011;63465;50.862;6.220;2023-03-01T13:20:23;14.13;;;9.00;;
74904;SDS011;63465;50.862;6.220;2023-03-01T13:23:00;15.83;;;8.90;;
74904;SDS011;63465;50.862;6.220;2023-03-01T13:25:29;32.40;;;9.03;;
74904;SDS011;63465;50.862;6.220;2023-03-01T13:28:32;14.90;;;9.20;;
74904;SDS011;63465;50.862;6.220;2023-03-01T13:31:07;16.80;;;8.97;;
74904;SDS011;63465;50.862;6.220;2023-03-01T13:33:43;13.83;;;7.90;;
74904;SDS011;63465;50.862;6.220;2023-03-01T13:36:11;15.10;;;8.67;;
74904;SDS011;63465;50.862;6.220;2023-03-01T13:38:59;21.90;;;8.90;;
74904;SDS011;63465;50.862;6.220;2023-03-01T13:44:20;21.17;;;9.60;;
74904;SDS011;63465;50.862;6.220;2023-03-01T13:46:53;15.33;;;8.80;;
74904;SDS011;63465;50.862;6.220;2023-03-01T13:49:23;18.70;;;9.20;;
74904;SDS011;63465;50.862;6.220;2023-03-01T13:51:53;15.47;;;8.70;;
74904;SDS011;63465;50.862;6.220;2023-03-01T13:54:22;17.60;;;8.37;;
74904;SDS011;63465;50.862;6.220;2023-03-01T13:56:52;18.40;;;9.20;;
74904;SDS011;63465;50.862;6.220;2023-03-01T13:59:21;15.67;;;10.07;;
74904;SDS011;63465;50.862;6.220;2023-03-01T14:01:53;17.10;;;9.10;;
74904;SDS011;63465;50.862;6.220;2023-03-01T14:04:21;19.87;;;9.37;;
74904;SDS011;63465;50.862;6.220;2023-03-01T14:06:51;17.90;;;8.60;;
74904;SDS011;63465;50.862;6.220;2023-03-01T14:09:18;24.23;;;9.50;;
74904;SDS011;63465;50.862;6.220;2023-03-01T14:11:55;86.17;;;33.73;;
74904;SDS011;63465;50.862;6.220;2023-03-01T14:14:43;287.87;;;101.73;;
74904;SDS011;63465;50.862;6.220;2023-03-01T14:17:19;217.83;;;84.57;;
74904;SDS011;63465;50.862;6.220;2023-03-01T14:19:55;121.53;;;45.53;;
74904;SDS011;63465;50.862;6.220;2023-03-01T14:22:24;91.23;;;35.50;;
74904;SDS011;63465;50.862;6.220;2023-03-01T14:24:54;139.90;;;51.93;;
74904;SDS011;63465;50.862;6.220;2023-03-01T14:27:22;220.17;;;81.70;;
74904;SDS011;63465;50.862;6.220;2023-03-01T14:29:55;291.20;;;123.57;;
74904;SDS011;63465;50.862;6.220;2023-03-01T14:32:25;147.20;;;58.53;;
74904;SDS011;63465;50.862;6.220;2023-03-01T14:34:53;104.23;;;44.57;;
74904;SDS011;63465;50.862;6.220;2023-03-01T14:37:21;94.37;;;38.77;;
74904;SDS011;63465;50.862;6.220;2023-03-01T14:39:50;110.40;;;49.80;;
74904;SDS011;63465;50.862;6.220;2023-03-01T14:42:18;52.77;;;25.97;;
74904;SDS011;63465;50.862;6.220;2023-03-01T14:44:47;126.80;;;56.17;;
74904;SDS011;63465;50.862;6.220;2023-03-01T14:47:16;117.53;;;63.03;;
74904;SDS011;63465;50.862;6.220;2023-03-01T14:49:56;28.20;;;16.87;;
74904;SDS011;63465;50.862;6.220;2023-03-01T14:52:26;43.37;;;31.27;;
74904;SDS011;63465;50.862;6.220;2023-03-01T14:55:01;44.20;;;29.77;;
74904;SDS011;63465;50.862;6.220;2023-03-01T14:57:30;36.70;;;25.10;;
74904;SDS011;63465;50.862;6.220;2023-03-01T14:59:58;78.60;;;51.27;;
74904;SDS011;63465;50.862;6.220;2023-03-01T15:02:29;24.97;;;17.57;;
74904;SDS011;63465;50.862;6.220;2023-03-01T15:05:00;20.17;;;13.90;;